createdAt,value
2017-07-10T00:01:40.775Z,86.50
2017-07-10T00:04:07.254Z,86.40
2017-07-10T00:06:34.465Z,86.30
2017-07-10T00:09:00.999Z,86.30
2017-07-10T00:11:27.502Z,86.40
2017-07-10T00:13:53.957Z,86.20
2017-07-10T00:16:20.458Z,86.10
2017-07-10T00:18:46.943Z,86.10
2017-07-10T00:21:13.429Z,86.20
2017-07-10T00:23:39.932Z,86.60
2017-07-10T00:26:07.155Z,86.80
2017-07-10T00:28:33.657Z,87.50
2017-07-10T00:31:00.131Z,86.80
2017-07-10T00:33:26.664Z,86.90
2017-07-10T00:35:53.172Z,86.80
2017-07-10T00:38:19.627Z,86.80
2017-07-10T00:40:46.119Z,86.70
2017-07-10T00:43:12.594Z,86.70
2017-07-10T00:45:39.302Z,86.90
2017-07-10T00:48:05.818Z,86.80
2017-07-10T00:50:32.298Z,87.00
2017-07-10T00:52:58.788Z,87.00
2017-07-10T00:55:25.273Z,87.10
2017-07-10T00:57:52.694Z,87.00
2017-07-10T01:00:19.182Z,87.10
2017-07-10T01:02:45.655Z,87.10
2017-07-10T01:05:12.173Z,87.30
2017-07-10T01:07:38.662Z,87.20
2017-07-10T01:10:05.933Z,87.10
2017-07-10T01:12:32.572Z,87.00
2017-07-10T01:14:59.041Z,87.10
2017-07-10T01:17:25.518Z,87.00
2017-07-10T01:19:52.034Z,87.10
2017-07-10T01:22:18.499Z,87.00
2017-07-10T01:24:45.019Z,86.90
2017-07-10T01:27:12.228Z,86.70
2017-07-10T01:29:38.767Z,86.70
2017-07-10T01:32:05.253Z,86.50
2017-07-10T01:34:31.781Z,86.50
2017-07-10T01:36:58.325Z,86.40
2017-07-10T01:39:24.878Z,86.40
2017-07-10T01:41:51.395Z,86.40
2017-07-10T01:44:17.915Z,86.40
2017-07-10T01:46:44.409Z,86.50
2017-07-10T01:49:10.945Z,86.30
2017-07-10T01:51:37.482Z,86.50
2017-07-10T01:54:04.002Z,86.40
2017-07-10T01:56:30.453Z,86.40
2017-07-10T01:58:57.970Z,86.40
2017-07-10T02:01:24.443Z,86.30
2017-07-10T02:03:51.676Z,86.10
2017-07-10T02:06:18.193Z,86.10
2017-07-10T02:08:44.668Z,85.90
2017-07-10T02:11:11.923Z,86.20
2017-07-10T02:13:39.202Z,86.30
2017-07-10T02:16:05.702Z,86.30
2017-07-10T02:18:32.952Z,86.50
2017-07-10T02:21:00.156Z,87.10
2017-07-10T02:23:26.679Z,86.40
2017-07-10T02:25:53.176Z,86.40
2017-07-10T02:28:19.659Z,86.20
2017-07-10T02:30:46.174Z,86.00
2017-07-10T02:33:12.633Z,86.10
2017-07-10T02:35:39.133Z,86.30
2017-07-10T02:38:05.621Z,86.30
2017-07-10T02:40:32.874Z,86.50
2017-07-10T02:43:00.101Z,86.70
2017-07-10T02:45:26.591Z,86.50
2017-07-10T02:47:53.076Z,86.80
2017-07-10T02:50:19.537Z,86.70
2017-07-10T02:52:46.055Z,86.80
2017-07-10T02:55:13.264Z,87.00
2017-07-10T02:57:46.978Z,87.00
2017-07-10T03:00:13.454Z,86.90
2017-07-10T03:02:39.941Z,87.10
2017-07-10T03:05:06.450Z,87.20
2017-07-10T03:07:32.910Z,87.40
2017-07-10T03:09:59.447Z,87.30
2017-07-10T03:12:25.979Z,87.50
2017-07-10T03:14:52.482Z,87.50
2017-07-10T03:17:19.006Z,87.60
2017-07-10T03:19:45.483Z,87.60
2017-07-10T03:22:12.045Z,87.60
2017-07-10T03:24:39.275Z,87.40
2017-07-10T03:27:05.776Z,87.40
2017-07-10T03:29:32.411Z,87.30
2017-07-10T03:31:58.899Z,87.30
2017-07-10T03:34:25.374Z,87.30
2017-07-10T03:36:51.891Z,87.30
2017-07-10T03:39:18.447Z,87.40
2017-07-10T03:41:44.931Z,87.40
2017-07-10T03:44:11.463Z,87.30
2017-07-10T03:46:37.946Z,87.30
2017-07-10T03:49:04.462Z,87.30
2017-07-10T03:51:31.002Z,87.40
2017-07-10T03:53:57.477Z,87.20
2017-07-10T03:56:23.970Z,87.20
2017-07-10T03:58:50.456Z,87.20
2017-07-10T04:01:17.703Z,87.20
2017-07-10T04:03:44.932Z,87.30
2017-07-10T04:06:11.449Z,87.30
2017-07-10T04:08:37.933Z,87.20
2017-07-10T04:11:04.458Z,87.30
2017-07-10T04:13:31.748Z,87.30
2017-07-10T04:15:58.207Z,87.30
2017-07-10T04:18:24.932Z,87.30
2017-07-10T04:20:51.451Z,87.30
2017-07-10T04:23:17.926Z,87.40
2017-07-10T04:25:44.449Z,87.50
2017-07-10T04:28:10.941Z,87.50
2017-07-10T04:30:37.702Z,87.50
2017-07-10T04:33:04.215Z,87.60
2017-07-10T04:35:30.674Z,87.60
2017-07-10T04:37:57.349Z,88.20
2017-07-10T04:40:24.558Z,87.30
2017-07-10T04:42:51.054Z,87.30
2017-07-10T04:45:17.587Z,87.10
2017-07-10T04:47:44.117Z,87.10
2017-07-10T04:50:10.630Z,87.10
2017-07-10T04:52:37.853Z,86.70
2017-07-10T04:55:04.390Z,86.70
2017-07-10T04:57:30.846Z,86.70
2017-07-10T04:59:57.365Z,86.60
2017-07-10T05:02:24.576Z,86.00
2017-07-10T05:04:51.050Z,86.00
2017-07-10T05:07:18.453Z,85.40
2017-07-10T05:09:44.941Z,85.40
2017-07-10T05:12:11.408Z,85.60
2017-07-10T05:14:37.971Z,85.40
2017-07-10T05:17:04.454Z,85.20
2017-07-10T05:19:30.952Z,85.20
2017-07-10T05:21:57.424Z,85.30
2017-07-10T05:24:23.939Z,84.70
2017-07-10T05:26:51.310Z,84.90
2017-07-10T05:29:17.773Z,84.90
2017-07-10T05:31:44.258Z,84.40
2017-07-10T05:34:11.525Z,84.50
2017-07-10T05:36:38.028Z,84.50
2017-07-10T05:39:04.542Z,84.80
2017-07-10T05:41:30.993Z,85.00
2017-07-10T05:43:58.251Z,83.90
2017-07-10T05:46:24.760Z,83.80
2017-07-10T05:48:51.282Z,84.30
2017-07-10T05:51:17.771Z,84.30
2017-07-10T05:53:44.317Z,84.60
2017-07-10T05:56:10.829Z,84.50
2017-07-10T05:58:37.306Z,84.30
2017-07-10T06:01:03.855Z,83.90
2017-07-10T06:03:30.328Z,83.90
2017-07-10T06:05:56.811Z,84.20
2017-07-10T06:08:23.308Z,84.30
2017-07-10T06:10:49.869Z,84.60
2017-07-10T06:13:16.399Z,84.60
2017-07-10T06:15:42.939Z,84.10
2017-07-10T06:18:09.438Z,83.90
2017-07-10T06:20:35.914Z,84.20
2017-07-10T06:23:02.398Z,84.50
2017-07-10T06:25:28.957Z,83.60
2017-07-10T06:27:55.437Z,83.30
2017-07-10T06:30:21.959Z,83.40
2017-07-10T06:32:48.407Z,83.70
2017-07-10T06:35:15.621Z,84.20
2017-07-10T06:37:42.113Z,84.20
2017-07-10T06:40:08.591Z,84.20
2017-07-10T06:42:35.117Z,84.30
2017-07-10T06:45:01.604Z,84.60
2017-07-10T06:47:28.073Z,84.70
2017-07-10T06:49:54.594Z,84.10
2017-07-10T06:52:21.061Z,84.10
2017-07-10T06:54:47.558Z,84.50
2017-07-10T06:57:14.025Z,84.00
2017-07-10T06:59:40.520Z,83.30
2017-07-10T07:02:06.978Z,83.10
2017-07-10T07:04:33.473Z,82.40
2017-07-10T07:06:59.951Z,82.60
2017-07-10T07:09:26.484Z,82.70
2017-07-10T07:11:52.941Z,82.20
2017-07-10T07:14:20.196Z,80.40
2017-07-10T07:16:47.474Z,78.20
2017-07-10T07:19:13.944Z,78.00
2017-07-10T07:21:40.423Z,77.90
2017-07-10T07:24:07.690Z,76.10
2017-07-10T07:26:34.160Z,76.00
2017-07-10T07:29:00.629Z,75.40
2017-07-10T07:31:28.033Z,74.20
2017-07-10T07:33:54.515Z,74.30
2017-07-10T07:36:21.771Z,72.80
2017-07-10T07:38:48.302Z,72.80
2017-07-10T07:41:15.514Z,72.70
2017-07-10T07:43:42.053Z,72.00
2017-07-10T07:46:08.523Z,72.10
2017-07-10T07:48:35.007Z,72.40
2017-07-10T07:51:01.526Z,72.70
2017-07-10T07:53:28.021Z,71.40
2017-07-10T07:55:55.318Z,70.90
2017-07-10T07:58:21.781Z,70.90
2017-07-10T08:00:48.274Z,71.20
2017-07-10T08:03:14.810Z,70.70
2017-07-10T08:05:41.307Z,70.00
2017-07-10T08:08:07.817Z,70.20
2017-07-10T08:10:35.035Z,69.40
2017-07-10T08:13:01.501Z,69.10
2017-07-10T08:15:28.771Z,68.80
2017-07-10T08:17:55.284Z,68.80
2017-07-10T08:20:22.533Z,68.20
2017-07-10T08:22:50.861Z,68.20
2017-07-10T08:25:17.522Z,67.80
2017-07-10T08:27:44.000Z,67.60
2017-07-10T08:30:10.495Z,67.50
2017-07-10T08:32:37.224Z,67.00
2017-07-10T08:35:03.731Z,65.60
2017-07-10T08:37:30.214Z,64.60
2017-07-10T08:39:57.477Z,62.90
2017-07-10T08:42:24.727Z,60.80
2017-07-10T08:44:51.953Z,61.50
2017-07-10T08:47:18.456Z,62.20
2017-07-10T08:49:44.933Z,62.10
2017-07-10T08:52:12.169Z,63.40
2017-07-10T08:54:38.637Z,63.40
2017-07-10T08:57:05.410Z,64.10
2017-07-10T08:59:31.886Z,63.40
2017-07-10T09:01:58.377Z,62.90
2017-07-10T09:04:24.922Z,63.10
2017-07-10T09:06:51.388Z,62.80
2017-07-10T09:09:17.891Z,63.30
2017-07-10T09:11:44.606Z,62.60
2017-07-10T09:14:11.113Z,63.20
2017-07-10T09:16:37.626Z,61.90
2017-07-10T09:19:05.151Z,62.30
2017-07-10T09:21:31.653Z,62.20
2017-07-10T09:23:58.126Z,61.60
2017-07-10T09:26:24.627Z,62.30
2017-07-10T09:28:51.122Z,63.70
2017-07-10T09:31:17.629Z,62.90
2017-07-10T09:33:44.090Z,62.80
2017-07-10T09:36:10.622Z,64.20
2017-07-10T09:38:37.090Z,62.10
2017-07-10T09:41:03.593Z,62.70
2017-07-10T09:43:30.134Z,61.10
2017-07-10T09:45:56.618Z,60.90
2017-07-10T09:48:23.129Z,62.00
2017-07-10T09:50:49.606Z,61.40
2017-07-10T09:53:16.816Z,61.90
2017-07-10T09:55:44.107Z,61.20
2017-07-10T09:58:11.310Z,61.40
2017-07-10T10:00:37.775Z,61.40
2017-07-10T10:03:04.285Z,62.90
2017-07-10T10:05:30.755Z,62.60
2017-07-10T10:07:58.142Z,65.10
2017-07-10T10:10:24.597Z,65.10
2017-07-10T10:12:51.074Z,65.40
2017-07-10T10:15:18.574Z,65.30
2017-07-10T10:17:45.095Z,65.30
2017-07-10T10:20:11.596Z,65.30
2017-07-10T10:22:38.840Z,65.30
2017-07-10T10:25:06.046Z,64.90
2017-07-10T10:27:32.588Z,64.80
2017-07-10T10:29:59.072Z,65.60
2017-07-10T10:32:25.841Z,65.10
2017-07-10T10:34:52.320Z,63.50
2017-07-10T10:37:18.837Z,62.60
2017-07-10T10:39:45.414Z,62.40
2017-07-10T10:42:11.889Z,61.70
2017-07-10T10:44:38.413Z,60.00
2017-07-10T10:47:04.883Z,58.00
2017-07-10T10:49:32.115Z,58.00
2017-07-10T10:51:58.635Z,58.20
2017-07-10T10:54:25.126Z,56.20
2017-07-10T10:56:51.803Z,55.10
2017-07-10T10:59:18.328Z,55.90
2017-07-10T11:01:44.852Z,56.10
2017-07-10T11:04:11.358Z,56.10
2017-07-10T11:06:37.819Z,55.40
2017-07-10T11:09:04.313Z,55.10
2017-07-10T11:11:31.538Z,54.30
2017-07-10T11:13:58.176Z,54.20
2017-07-10T11:16:24.696Z,54.80
2017-07-10T11:18:51.187Z,56.00
2017-07-10T11:21:17.678Z,55.80
2017-07-10T11:23:44.149Z,55.10
2017-07-10T11:26:10.708Z,55.80
2017-07-10T11:28:37.190Z,55.30
2017-07-10T11:31:04.504Z,55.20
2017-07-10T11:33:31.003Z,55.30
2017-07-10T11:35:57.480Z,55.60
2017-07-10T11:38:23.957Z,55.60
2017-07-10T11:40:50.435Z,56.40
2017-07-10T11:43:16.948Z,57.00
2017-07-10T11:45:43.445Z,56.50
2017-07-10T11:48:09.919Z,57.30
2017-07-10T11:50:36.372Z,56.70
2017-07-10T11:53:02.858Z,56.50
2017-07-10T11:55:29.375Z,57.40
2017-07-10T11:57:56.573Z,55.40
2017-07-10T12:00:23.155Z,55.40
2017-07-10T12:02:50.367Z,56.70
2017-07-10T12:05:16.873Z,56.70
2017-07-10T12:07:43.378Z,55.20
2017-07-10T12:10:09.882Z,55.90
2017-07-10T12:12:36.391Z,56.30
2017-07-10T12:15:02.884Z,55.80
2017-07-10T12:17:29.378Z,56.20
2017-07-10T12:19:55.883Z,56.70
2017-07-10T12:22:22.349Z,56.80
2017-07-10T12:24:48.879Z,55.40
2017-07-10T12:27:15.385Z,55.10
2017-07-10T12:29:41.872Z,55.40
2017-07-10T12:32:08.397Z,55.50
2017-07-10T12:34:35.642Z,57.30
2017-07-10T12:37:02.873Z,58.10
2017-07-10T12:39:29.350Z,57.70
2017-07-10T12:41:56.010Z,57.60
2017-07-10T12:44:22.511Z,58.10
2017-07-10T12:46:48.985Z,57.00
2017-07-10T12:49:15.512Z,56.80
2017-07-10T12:51:42.007Z,57.40
2017-07-10T12:54:08.509Z,58.40
2017-07-10T12:56:34.980Z,57.70
2017-07-10T12:59:01.507Z,58.60
2017-07-10T13:01:28.711Z,59.50
2017-07-10T13:03:55.235Z,59.50
2017-07-10T13:06:21.682Z,59.20
2017-07-10T13:08:48.141Z,59.70
2017-07-10T13:11:15.416Z,60.00
2017-07-10T13:13:41.925Z,59.90
2017-07-10T13:16:09.236Z,59.00
2017-07-10T13:18:35.699Z,59.00
2017-07-10T13:21:03.224Z,58.60
2017-07-10T13:23:29.717Z,58.60
2017-07-10T13:25:56.197Z,58.60
2017-07-10T13:28:22.726Z,59.50
2017-07-10T13:30:49.259Z,58.00
2017-07-10T13:33:15.768Z,57.10
2017-07-10T13:35:42.433Z,57.10
2017-07-10T13:38:08.915Z,57.00
2017-07-10T13:40:35.396Z,57.60
2017-07-10T13:43:01.915Z,57.50
2017-07-10T13:45:28.377Z,57.70
2017-07-10T13:47:54.907Z,58.20
2017-07-10T13:50:21.406Z,57.60
2017-07-10T13:52:47.923Z,58.20
2017-07-10T13:55:14.417Z,59.30
2017-07-10T13:57:40.932Z,58.10
2017-07-10T14:00:07.566Z,57.10
2017-07-10T14:02:34.013Z,56.70
2017-07-10T14:05:00.518Z,57.30
2017-07-10T14:07:27.036Z,58.40
2017-07-10T14:09:53.530Z,58.30
2017-07-10T14:12:20.945Z,56.60
2017-07-10T14:14:47.434Z,56.60
2017-07-10T14:17:13.951Z,57.20
2017-07-10T14:19:41.193Z,55.60
2017-07-10T14:22:08.446Z,55.30
2017-07-10T14:24:35.646Z,56.40
2017-07-10T14:27:02.184Z,56.40
2017-07-10T14:29:28.653Z,54.60
2017-07-10T14:31:55.119Z,55.20
2017-07-10T14:34:21.634Z,54.50
2017-07-10T14:36:48.851Z,55.60
2017-07-10T14:39:15.410Z,55.60
2017-07-10T14:41:42.637Z,55.40
2017-07-10T14:44:09.138Z,55.40
2017-07-10T14:46:35.665Z,54.70
2017-07-10T14:49:02.147Z,54.60
2017-07-10T14:51:29.421Z,54.80
2017-07-10T14:53:56.650Z,55.30
2017-07-10T14:56:23.126Z,55.30
2017-07-10T14:58:49.883Z,55.60
2017-07-10T15:01:16.353Z,56.80
2017-07-10T15:03:42.815Z,56.40
2017-07-10T15:06:09.321Z,56.50
2017-07-10T15:08:36.024Z,57.00
2017-07-10T15:11:02.500Z,56.10
2017-07-10T15:13:29.729Z,57.10
2017-07-10T15:15:56.333Z,57.10
2017-07-10T15:18:22.825Z,56.00
2017-07-10T15:20:50.033Z,56.20
2017-07-10T15:23:16.561Z,56.20
2017-07-10T15:25:43.033Z,56.90
2017-07-10T15:28:10.291Z,57.00
2017-07-10T15:30:37.503Z,57.00
2017-07-10T15:33:04.217Z,57.00
2017-07-10T15:35:30.709Z,57.20
2017-07-10T15:37:57.927Z,58.50
2017-07-10T15:40:24.439Z,58.40
2017-07-10T15:42:50.962Z,58.30
2017-07-10T15:45:17.606Z,57.50
2017-07-10T15:47:44.075Z,57.60
2017-07-10T15:50:10.543Z,59.00
2017-07-10T15:52:37.061Z,58.60
2017-07-10T15:55:03.540Z,59.00
2017-07-10T15:57:30.086Z,58.20
2017-07-10T15:59:56.543Z,57.10
2017-07-10T16:02:23.971Z,57.10
2017-07-10T16:04:50.443Z,57.00
2017-07-10T16:07:17.653Z,56.60
2017-07-10T16:09:44.326Z,56.60
2017-07-10T16:12:11.550Z,56.00
2017-07-10T16:14:38.033Z,55.90
2017-07-10T16:17:04.789Z,56.50
2017-07-10T16:19:31.291Z,57.10
2017-07-10T16:21:57.748Z,56.20
2017-07-10T16:24:24.355Z,55.20
2017-07-10T16:26:50.849Z,55.50
2017-07-10T16:29:17.352Z,55.80
2017-07-10T16:31:43.897Z,57.10
2017-07-10T16:34:10.367Z,57.50
2017-07-10T16:36:37.652Z,57.50
2017-07-10T16:39:04.149Z,56.90
2017-07-10T16:41:31.371Z,57.00
2017-07-10T16:43:57.881Z,57.00
2017-07-10T16:46:24.383Z,57.30
2017-07-10T16:48:50.854Z,57.10
2017-07-10T16:51:17.382Z,57.20
2017-07-10T16:53:43.862Z,57.80
2017-07-10T16:56:11.102Z,58.70
2017-07-10T16:58:37.562Z,58.00
2017-07-10T17:01:04.131Z,57.70
2017-07-10T17:03:30.594Z,57.20
2017-07-10T17:05:57.201Z,57.50
2017-07-10T17:08:23.715Z,56.80
2017-07-10T17:10:50.217Z,57.70
2017-07-10T17:13:17.647Z,57.90
2017-07-10T17:15:44.132Z,57.90
2017-07-10T17:18:10.657Z,58.00
2017-07-10T17:20:37.254Z,57.40
2017-07-10T17:23:03.743Z,57.70
2017-07-10T17:25:30.226Z,58.10
2017-07-10T17:27:56.760Z,58.50
2017-07-10T17:30:23.244Z,59.10
2017-07-10T17:32:49.895Z,58.80
2017-07-10T17:35:16.373Z,59.50
2017-07-10T17:37:43.608Z,61.00
2017-07-10T17:40:10.161Z,60.30
2017-07-10T17:42:36.664Z,60.50
2017-07-10T17:45:03.186Z,59.60
2017-07-10T17:47:29.693Z,60.00
2017-07-10T17:49:56.201Z,60.40
2017-07-10T17:52:22.866Z,60.50
2017-07-10T17:54:49.360Z,60.60
2017-07-10T17:57:16.582Z,62.20
2017-07-10T17:59:43.195Z,61.50
2017-07-10T18:02:09.800Z,61.10
2017-07-10T18:04:36.291Z,61.20
2017-07-10T18:07:02.963Z,61.90
2017-07-10T18:09:29.458Z,61.90
2017-07-10T18:11:55.957Z,62.00
2017-07-10T18:14:22.445Z,62.30
2017-07-10T18:16:49.756Z,63.60
2017-07-10T18:19:16.222Z,63.60
2017-07-10T18:21:43.482Z,64.70
2017-07-10T18:24:10.717Z,65.30
2017-07-10T18:26:37.224Z,65.10
2017-07-10T18:29:03.775Z,65.70
2017-07-10T18:31:30.295Z,66.00
2017-07-10T18:33:56.947Z,66.40
2017-07-10T18:36:23.444Z,67.00
2017-07-10T18:38:49.951Z,67.40
2017-07-10T18:41:16.592Z,67.80
2017-07-10T18:43:43.057Z,67.60
2017-07-10T18:46:09.548Z,67.80
2017-07-10T18:48:36.128Z,68.10
2017-07-10T18:51:02.625Z,68.30
2017-07-10T18:53:29.229Z,68.50
2017-07-10T18:55:56.586Z,69.10
2017-07-10T18:58:24.352Z,68.90
2017-07-10T19:00:50.859Z,68.80
2017-07-10T19:03:17.365Z,68.80
2017-07-10T19:05:43.969Z,69.20
2017-07-10T19:08:10.544Z,69.50
2017-07-10T19:10:37.101Z,70.40
2017-07-10T19:13:03.734Z,70.60
2017-07-10T19:15:31.307Z,72.00
2017-07-10T19:17:58.804Z,73.90
2017-07-10T19:20:25.474Z,73.30
2017-07-10T19:22:52.034Z,73.30
2017-07-10T19:25:19.560Z,75.40
2017-07-10T19:27:46.297Z,74.70
2017-07-10T19:30:13.479Z,75.20
2017-07-10T19:32:40.577Z,75.70
2017-07-10T19:35:07.783Z,76.00
2017-07-10T19:37:34.706Z,76.30
2017-07-10T19:40:02.372Z,76.10
2017-07-10T19:42:29.782Z,76.50
2017-07-10T19:44:56.346Z,76.50
2017-07-10T19:47:23.036Z,77.10
2017-07-10T19:49:50.150Z,77.10
2017-07-10T19:52:17.197Z,76.40
2017-07-10T19:54:44.138Z,76.70
2017-07-10T19:57:12.004Z,76.00
2017-07-10T19:59:39.253Z,76.20
2017-07-10T20:02:05.827Z,76.50
2017-07-10T20:04:32.481Z,76.40
2017-07-10T20:06:59.102Z,76.50
2017-07-10T20:09:25.758Z,76.10
2017-07-10T20:11:52.331Z,76.40
2017-07-10T20:14:19.695Z,76.80
2017-07-10T20:16:46.218Z,76.80
2017-07-10T20:19:13.884Z,77.00
2017-07-10T20:21:40.394Z,77.00
2017-07-10T20:24:06.954Z,76.70
2017-07-10T20:26:34.233Z,76.20
2017-07-10T20:29:00.692Z,76.20
2017-07-10T20:31:27.149Z,76.60
2017-07-10T20:33:54.474Z,77.40
2017-07-10T20:36:20.987Z,77.80
2017-07-10T20:38:47.467Z,77.50
2017-07-10T20:41:13.958Z,77.20
2017-07-10T20:43:40.490Z,77.00
2017-07-10T20:46:06.959Z,76.90
2017-07-10T20:48:40.578Z,77.10
2017-07-10T20:51:07.813Z,77.90
2017-07-10T20:53:34.290Z,77.90
2017-07-10T20:56:00.809Z,78.00
2017-07-10T20:58:27.285Z,77.90
2017-07-10T21:00:53.818Z,78.10
2017-07-10T21:03:20.285Z,78.10
2017-07-10T21:05:47.702Z,78.60
2017-07-10T21:08:14.161Z,78.00
2017-07-10T21:10:40.620Z,78.00
2017-07-10T21:13:07.147Z,77.90
2017-07-10T21:15:34.361Z,77.20
2017-07-10T21:18:00.962Z,77.10
2017-07-10T21:20:27.455Z,77.10
2017-07-10T21:22:54.708Z,77.50
2017-07-10T21:25:21.929Z,77.50
2017-07-10T21:27:48.404Z,77.40
2017-07-10T21:30:15.689Z,77.60
2017-07-10T21:32:42.179Z,77.60
2017-07-10T21:35:09.389Z,77.20
2017-07-10T21:37:35.877Z,77.20
2017-07-10T21:40:02.364Z,77.30
2017-07-10T21:42:29.094Z,76.30
2017-07-10T21:44:55.559Z,76.10
2017-07-10T21:47:22.752Z,76.90
2017-07-10T21:49:49.343Z,76.80
2017-07-10T21:52:16.580Z,76.80
2017-07-10T21:54:43.106Z,76.60
2017-07-10T21:57:09.622Z,76.30
2017-07-10T21:59:36.097Z,76.20
2017-07-10T22:02:03.469Z,76.30
2017-07-10T22:04:29.940Z,75.60
2017-07-10T22:06:56.432Z,75.10
2017-07-10T22:09:23.349Z,75.30
2017-07-10T22:11:50.570Z,75.80
2017-07-10T22:14:17.302Z,75.00
2017-07-10T22:16:43.775Z,74.90
2017-07-10T22:19:10.291Z,74.50
2017-07-10T22:21:37.006Z,74.30
2017-07-10T22:24:03.498Z,74.60
2017-07-10T22:26:29.977Z,74.80
2017-07-10T22:28:56.507Z,75.20
2017-07-10T22:31:23.007Z,74.70
2017-07-10T22:33:49.535Z,74.20
2017-07-10T22:36:16.011Z,74.50
2017-07-10T22:38:42.526Z,74.50
2017-07-10T22:41:09.001Z,74.30
2017-07-10T22:43:36.256Z,73.90
2017-07-10T22:46:03.494Z,73.60
2017-07-10T22:48:29.961Z,73.60
2017-07-10T22:50:56.498Z,73.50
2017-07-10T22:53:23.004Z,73.70
2017-07-10T22:55:50.217Z,73.80
2017-07-10T22:58:16.715Z,73.80
2017-07-10T23:00:43.190Z,73.80
2017-07-10T23:03:09.708Z,74.10
2017-07-10T23:05:36.199Z,74.20
2017-07-10T23:08:02.659Z,74.30
2017-07-10T23:10:29.170Z,74.60
2017-07-10T23:12:55.655Z,74.80
2017-07-10T23:15:22.125Z,74.70
2017-07-10T23:17:49.367Z,74.90
2017-07-10T23:20:16.582Z,75.20
2017-07-10T23:22:43.912Z,75.20
2017-07-10T23:25:10.417Z,75.50
2017-07-10T23:27:36.887Z,76.10
2017-07-10T23:30:03.616Z,75.90
2017-07-10T23:32:30.129Z,75.50
2017-07-10T23:34:57.350Z,75.90
2017-07-10T23:37:24.618Z,75.60
2017-07-10T23:39:51.089Z,75.60
2017-07-10T23:42:17.579Z,75.20
2017-07-10T23:44:44.122Z,74.80
2017-07-10T23:47:10.600Z,75.00
2017-07-10T23:49:37.112Z,74.70
2017-07-10T23:52:03.608Z,75.20
2017-07-10T23:54:30.820Z,75.40
2017-07-10T23:56:57.347Z,75.40
2017-07-10T23:59:23.809Z,75.10
